sensor_id;sensor_type;location;lat;lon;timestamp;P1;durP1;ratioP1;P2;durP2;ratioP2
73266;SDS011;61495;53.400;7.608;2023-04-24T00:00:08;6.28;;;2.92;;
73266;SDS011;61495;53.400;7.608;2023-04-24T00:02:34;4.82;;;3.22;;
73266;SDS011;61495;53.400;7.608;2023-04-24T00:05:03;5.38;;;3.22;;
73266;SDS011;61495;53.400;7.608;2023-04-24T00:07:29;5.32;;;2.75;;
73266;SDS011;61495;53.400;7.608;2023-04-24T00:09:55;6.70;;;3.50;;
73266;SDS011;61495;53.400;7.608;2023-04-24T00:12:20;4.82;;;3.00;;
73266;SDS011;61495;53.400;7.608;2023-04-24T00:14:46;6.05;;;3.80;;
73266;SDS011;61495;53.400;7.608;2023-04-24T00:17:11;5.72;;;3.67;;
73266;SDS011;61495;53.400;7.608;2023-04-24T00:19:37;8.10;;;3.45;;
73266;SDS011;61495;53.400;7.608;2023-04-24T00:22:02;6.13;;;3.67;;
73266;SDS011;61495;53.400;7.608;2023-04-24T00:24:28;4.93;;;2.53;;
73266;SDS011;61495;53.400;7.608;2023-04-24T00:26:54;6.22;;;2.97;;
73266;SDS011;61495;53.400;7.608;2023-04-24T00:29:19;3.72;;;2.42;;
73266;SDS011;61495;53.400;7.608;2023-04-24T00:31:44;4.50;;;1.90;;
73266;SDS011;61495;53.400;7.608;2023-04-24T00:34:10;5.47;;;2.58;;
73266;SDS011;61495;53.400;7.608;2023-04-24T00:36:36;4.40;;;2.72;;
73266;SDS011;61495;53.400;7.608;2023-04-24T00:39:02;3.17;;;1.60;;
73266;SDS011;61495;53.400;7.608;2023-04-24T00:41:27;3.17;;;1.40;;
73266;SDS011;61495;53.400;7.608;2023-04-24T00:43:53;2.88;;;1.77;;
73266;SDS011;61495;53.400;7.608;2023-04-24T00:46:18;3.30;;;1.20;;
73266;SDS011;61495;53.400;7.608;2023-04-24T00:48:47;2.53;;;1.20;;
73266;SDS011;61495;53.400;7.608;2023-04-24T00:51:13;2.60;;;1.17;;
73266;SDS011;61495;53.400;7.608;2023-04-24T00:53:38;1.30;;;0.70;;
73266;SDS011;61495;53.400;7.608;2023-04-24T00:56:03;2.08;;;1.10;;
73266;SDS011;61495;53.400;7.608;2023-04-24T00:58:30;1.17;;;0.50;;
73266;SDS011;61495;53.400;7.608;2023-04-24T01:00:56;1.15;;;0.40;;
73266;SDS011;61495;53.400;7.608;2023-04-24T01:03:23;0.95;;;0.85;;
73266;SDS011;61495;53.400;7.608;2023-04-24T01:05:51;0.68;;;0.35;;
73266;SDS011;61495;53.400;7.608;2023-04-24T01:08:18;0.77;;;0.60;;
73266;SDS011;61495;53.400;7.608;2023-04-24T01:10:45;1.98;;;0.90;;
73266;SDS011;61495;53.400;7.608;2023-04-24T01:13:12;1.15;;;0.68;;
73266;SDS011;61495;53.400;7.608;2023-04-24T01:15:38;0.88;;;0.70;;
73266;SDS011;61495;53.400;7.608;2023-04-24T01:18:03;1.92;;;1.08;;
73266;SDS011;61495;53.400;7.608;2023-04-24T01:20:29;1.00;;;0.50;;
73266;SDS011;61495;53.400;7.608;2023-04-24T01:22:55;1.35;;;0.50;;
73266;SDS011;61495;53.400;7.608;2023-04-24T01:25:21;1.33;;;0.50;;
73266;SDS011;61495;53.400;7.608;2023-04-24T01:27:47;2.05;;;0.90;;
73266;SDS011;61495;53.400;7.608;2023-04-24T01:30:12;1.23;;;0.60;;
73266;SDS011;61495;53.400;7.608;2023-04-24T01:32:38;1.70;;;0.68;;
73266;SDS011;61495;53.400;7.608;2023-04-24T01:35:04;1.48;;;0.90;;
73266;SDS011;61495;53.400;7.608;2023-04-24T01:37:32;2.50;;;1.25;;
73266;SDS011;61495;53.400;7.608;2023-04-24T01:40:09;1.77;;;0.80;;
73266;SDS011;61495;53.400;7.608;2023-04-24T01:42:57;2.22;;;0.80;;
73266;SDS011;61495;53.400;7.608;2023-04-24T01:45:44;2.47;;;1.30;;
73266;SDS011;61495;53.400;7.608;2023-04-24T01:48:22;3.65;;;1.20;;
73266;SDS011;61495;53.400;7.608;2023-04-24T01:51:00;3.28;;;1.48;;
73266;SDS011;61495;53.400;7.608;2023-04-24T01:53:37;2.00;;;1.17;;
73266;SDS011;61495;53.400;7.608;2023-04-24T01:56:12;1.88;;;1.10;;
73266;SDS011;61495;53.400;7.608;2023-04-24T01:58:39;1.55;;;0.90;;
73266;SDS011;61495;53.400;7.608;2023-04-24T02:01:06;1.90;;;1.20;;
73266;SDS011;61495;53.400;7.608;2023-04-24T02:03:31;2.17;;;1.08;;
73266;SDS011;61495;53.400;7.608;2023-04-24T02:05:57;2.88;;;1.40;;
73266;SDS011;61495;53.400;7.608;2023-04-24T02:08:22;2.80;;;1.65;;
73266;SDS011;61495;53.400;7.608;2023-04-24T02:10:47;2.55;;;1.15;;
73266;SDS011;61495;53.400;7.608;2023-04-24T02:13:12;2.60;;;1.20;;
73266;SDS011;61495;53.400;7.608;2023-04-24T02:15:38;2.58;;;1.10;;
73266;SDS011;61495;53.400;7.608;2023-04-24T02:18:09;2.80;;;1.50;;
73266;SDS011;61495;53.400;7.608;2023-04-24T02:20:36;2.08;;;1.13;;
73266;SDS011;61495;53.400;7.608;2023-04-24T02:23:01;2.60;;;1.50;;
73266;SDS011;61495;53.400;7.608;2023-04-24T02:25:27;2.63;;;1.33;;
73266;SDS011;61495;53.400;7.608;2023-04-24T02:27:52;3.80;;;1.70;;
73266;SDS011;61495;53.400;7.608;2023-04-24T02:30:17;3.65;;;1.60;;
73266;SDS011;61495;53.400;7.608;2023-04-24T02:32:43;3.67;;;1.60;;
73266;SDS011;61495;53.400;7.608;2023-04-24T02:35:08;3.28;;;1.77;;
73266;SDS011;61495;53.400;7.608;2023-04-24T02:37:34;3.72;;;2.40;;
73266;SDS011;61495;53.400;7.608;2023-04-24T02:39:59;4.13;;;2.30;;
73266;SDS011;61495;53.400;7.608;2023-04-24T02:42:25;3.47;;;1.77;;
73266;SDS011;61495;53.400;7.608;2023-04-24T02:44:50;3.42;;;1.90;;
73266;SDS011;61495;53.400;7.608;2023-04-24T02:47:16;3.63;;;1.80;;
73266;SDS011;61495;53.400;7.608;2023-04-24T02:49:46;4.85;;;2.30;;
73266;SDS011;61495;53.400;7.608;2023-04-24T02:52:12;3.42;;;1.92;;
73266;SDS011;61495;53.400;7.608;2023-04-24T02:54:38;4.50;;;2.22;;
73266;SDS011;61495;53.400;7.608;2023-04-24T02:57:03;4.20;;;1.98;;
73266;SDS011;61495;53.400;7.608;2023-04-24T02:59:28;4.05;;;2.30;;
73266;SDS011;61495;53.400;7.608;2023-04-24T03:01:54;3.70;;;1.90;;
73266;SDS011;61495;53.400;7.608;2023-04-24T03:04:19;3.83;;;2.53;;
73266;SDS011;61495;53.400;7.608;2023-04-24T03:06:45;4.55;;;2.25;;
73266;SDS011;61495;53.400;7.608;2023-04-24T03:09:11;4.20;;;2.58;;
73266;SDS011;61495;53.400;7.608;2023-04-24T03:11:36;4.80;;;2.67;;
73266;SDS011;61495;53.400;7.608;2023-04-24T03:14:01;4.63;;;2.55;;
73266;SDS011;61495;53.400;7.608;2023-04-24T03:16:27;6.15;;;2.50;;
73266;SDS011;61495;53.400;7.608;2023-04-24T03:18:52;4.38;;;2.60;;
73266;SDS011;61495;53.400;7.608;2023-04-24T03:21:18;4.60;;;2.90;;
73266;SDS011;61495;53.400;7.608;2023-04-24T03:23:43;4.68;;;2.90;;
73266;SDS011;61495;53.400;7.608;2023-04-24T03:26:08;3.97;;;2.55;;
73266;SDS011;61495;53.400;7.608;2023-04-24T03:28:34;4.68;;;2.20;;
73266;SDS011;61495;53.400;7.608;2023-04-24T03:30:59;4.78;;;2.40;;
73266;SDS011;61495;53.400;7.608;2023-04-24T03:33:25;4.22;;;2.28;;
73266;SDS011;61495;53.400;7.608;2023-04-24T03:35:50;4.53;;;2.50;;
73266;SDS011;61495;53.400;7.608;2023-04-24T03:38:15;4.20;;;2.47;;
73266;SDS011;61495;53.400;7.608;2023-04-24T03:40:41;4.45;;;3.00;;
73266;SDS011;61495;53.400;7.608;2023-04-24T03:43:06;4.88;;;2.70;;
73266;SDS011;61495;53.400;7.608;2023-04-24T03:45:31;5.32;;;3.20;;
73266;SDS011;61495;53.400;7.608;2023-04-24T03:47:57;5.00;;;2.92;;
73266;SDS011;61495;53.400;7.608;2023-04-24T03:50:22;5.38;;;3.20;;
73266;SDS011;61495;53.400;7.608;2023-04-24T03:52:48;5.15;;;3.58;;
73266;SDS011;61495;53.400;7.608;2023-04-24T03:55:13;5.03;;;3.40;;
73266;SDS011;61495;53.400;7.608;2023-04-24T03:57:40;6.65;;;3.45;;
73266;SDS011;61495;53.400;7.608;2023-04-24T04:00:06;5.97;;;3.80;;
73266;SDS011;61495;53.400;7.608;2023-04-24T04:02:31;7.82;;;3.35;;
73266;SDS011;61495;53.400;7.608;2023-04-24T04:04:57;5.53;;;3.17;;
73266;SDS011;61495;53.400;7.608;2023-04-24T04:07:22;6.32;;;4.00;;
73266;SDS011;61495;53.400;7.608;2023-04-24T04:09:47;6.18;;;3.90;;
73266;SDS011;61495;53.400;7.608;2023-04-24T04:12:13;5.85;;;3.90;;
73266;SDS011;61495;53.400;7.608;2023-04-24T04:14:38;5.55;;;3.20;;
73266;SDS011;61495;53.400;7.608;2023-04-24T04:17:03;6.57;;;3.13;;
73266;SDS011;61495;53.400;7.608;2023-04-24T04:19:41;6.05;;;3.30;;
73266;SDS011;61495;53.400;7.608;2023-04-24T04:22:07;8.82;;;3.53;;
73266;SDS011;61495;53.400;7.608;2023-04-24T04:24:33;7.10;;;3.35;;
73266;SDS011;61495;53.400;7.608;2023-04-24T04:26:58;6.13;;;3.72;;
73266;SDS011;61495;53.400;7.608;2023-04-24T04:29:24;5.60;;;3.42;;
73266;SDS011;61495;53.400;7.608;2023-04-24T04:31:50;5.18;;;3.00;;
73266;SDS011;61495;53.400;7.608;2023-04-24T04:34:16;4.90;;;2.78;;
73266;SDS011;61495;53.400;7.608;2023-04-24T04:36:41;5.20;;;2.88;;
73266;SDS011;61495;53.400;7.608;2023-04-24T04:39:08;7.60;;;3.17;;
73266;SDS011;61495;53.400;7.608;2023-04-24T04:41:33;6.15;;;3.10;;
73266;SDS011;61495;53.400;7.608;2023-04-24T04:44:02;5.15;;;2.63;;
73266;SDS011;61495;53.400;7.608;2023-04-24T04:46:29;5.53;;;3.65;;
73266;SDS011;61495;53.400;7.608;2023-04-24T04:49:00;5.90;;;3.30;;
73266;SDS011;61495;53.400;7.608;2023-04-24T04:51:26;4.38;;;2.60;;
73266;SDS011;61495;53.400;7.608;2023-04-24T04:53:52;6.97;;;3.25;;
73266;SDS011;61495;53.400;7.608;2023-04-24T04:56:17;5.85;;;2.88;;
73266;SDS011;61495;53.400;7.608;2023-04-24T04:58:43;4.63;;;2.67;;
73266;SDS011;61495;53.400;7.608;2023-04-24T05:01:08;4.65;;;2.90;;
73266;SDS011;61495;53.400;7.608;2023-04-24T05:03:33;4.50;;;2.85;;
73266;SDS011;61495;53.400;7.608;2023-04-24T05:05:59;4.07;;;2.35;;
73266;SDS011;61495;53.400;7.608;2023-04-24T05:08:24;4.80;;;2.88;;
73266;SDS011;61495;53.400;7.608;2023-04-24T05:10:50;5.72;;;3.17;;
73266;SDS011;61495;53.400;7.608;2023-04-24T05:13:15;4.85;;;2.78;;
73266;SDS011;61495;53.400;7.608;2023-04-24T05:15:41;4.43;;;2.72;;
73266;SDS011;61495;53.400;7.608;2023-04-24T05:18:09;4.15;;;2.80;;
73266;SDS011;61495;53.400;7.608;2023-04-24T05:20:35;4.90;;;2.40;;
73266;SDS011;61495;53.400;7.608;2023-04-24T05:23:00;4.53;;;2.42;;
73266;SDS011;61495;53.400;7.608;2023-04-24T05:25:26;4.47;;;2.70;;
73266;SDS011;61495;53.400;7.608;2023-04-24T05:27:51;4.72;;;2.97;;
73266;SDS011;61495;53.400;7.608;2023-04-24T05:30:18;5.30;;;3.17;;
73266;SDS011;61495;53.400;7.608;2023-04-24T05:32:43;5.03;;;2.83;;
73266;SDS011;61495;53.400;7.608;2023-04-24T05:35:09;5.25;;;2.95;;
73266;SDS011;61495;53.400;7.608;2023-04-24T05:37:35;5.97;;;3.00;;
73266;SDS011;61495;53.400;7.608;2023-04-24T05:40:00;5.05;;;2.95;;
73266;SDS011;61495;53.400;7.608;2023-04-24T05:42:26;7.63;;;3.10;;
73266;SDS011;61495;53.400;7.608;2023-04-24T05:44:51;5.38;;;3.03;;
73266;SDS011;61495;53.400;7.608;2023-04-24T05:47:18;5.35;;;2.88;;
73266;SDS011;61495;53.400;7.608;2023-04-24T05:49:50;5.55;;;3.55;;
73266;SDS011;61495;53.400;7.608;2023-04-24T05:52:15;4.80;;;3.33;;
73266;SDS011;61495;53.400;7.608;2023-04-24T05:54:41;4.75;;;2.83;;
73266;SDS011;61495;53.400;7.608;2023-04-24T05:57:06;12.88;;;3.30;;
73266;SDS011;61495;53.400;7.608;2023-04-24T05:59:33;7.05;;;3.53;;
73266;SDS011;61495;53.400;7.608;2023-04-24T06:01:59;5.65;;;2.90;;
73266;SDS011;61495;53.400;7.608;2023-04-24T06:04:24;5.18;;;2.78;;
73266;SDS011;61495;53.400;7.608;2023-04-24T06:06:50;5.32;;;3.33;;
73266;SDS011;61495;53.400;7.608;2023-04-24T06:09:20;6.20;;;3.25;;
73266;SDS011;61495;53.400;7.608;2023-04-24T06:11:46;5.55;;;2.75;;
73266;SDS011;61495;53.400;7.608;2023-04-24T06:14:11;6.32;;;3.03;;
73266;SDS011;61495;53.400;7.608;2023-04-24T06:16:37;5.35;;;3.00;;
73266;SDS011;61495;53.400;7.608;2023-04-24T06:21:51;7.43;;;3.03;;
73266;SDS011;61495;53.400;7.608;2023-04-24T06:24:16;8.40;;;3.58;;
73266;SDS011;61495;53.400;7.608;2023-04-24T06:26:41;6.20;;;3.78;;
73266;SDS011;61495;53.400;7.608;2023-04-24T06:29:07;5.10;;;2.97;;
73266;SDS011;61495;53.400;7.608;2023-04-24T06:31:32;5.65;;;3.30;;
73266;SDS011;61495;53.400;7.608;2023-04-24T06:34:02;6.22;;;3.45;;
73266;SDS011;61495;53.400;7.608;2023-04-24T06:36:27;7.85;;;3.67;;
73266;SDS011;61495;53.400;7.608;2023-04-24T06:38:53;5.07;;;3.10;;
73266;SDS011;61495;53.400;7.608;2023-04-24T06:41:19;5.43;;;3.05;;
73266;SDS011;61495;53.400;7.608;2023-04-24T06:43:44;5.00;;;2.90;;
73266;SDS011;61495;53.400;7.608;2023-04-24T06:46:10;5.35;;;3.17;;
73266;SDS011;61495;53.400;7.608;2023-04-24T06:48:38;5.13;;;2.58;;
73266;SDS011;61495;53.400;7.608;2023-04-24T06:51:04;4.97;;;2.70;;
73266;SDS011;61495;53.400;7.608;2023-04-24T06:53:29;5.43;;;2.40;;
73266;SDS011;61495;53.400;7.608;2023-04-24T06:55:55;6.25;;;3.08;;
73266;SDS011;61495;53.400;7.608;2023-04-24T06:58:20;4.80;;;3.03;;
73266;SDS011;61495;53.400;7.608;2023-04-24T07:00:46;5.20;;;2.92;;
73266;SDS011;61495;53.400;7.608;2023-04-24T07:03:11;6.03;;;2.70;;
73266;SDS011;61495;53.400;7.608;2023-04-24T07:05:36;6.22;;;3.05;;
73266;SDS011;61495;53.400;7.608;2023-04-24T07:08:03;4.82;;;2.80;;
73266;SDS011;61495;53.400;7.608;2023-04-24T07:10:28;6.13;;;2.70;;
73266;SDS011;61495;53.400;7.608;2023-04-24T07:12:54;4.80;;;2.35;;
73266;SDS011;61495;53.400;7.608;2023-04-24T07:15:21;5.10;;;3.10;;
73266;SDS011;61495;53.400;7.608;2023-04-24T07:17:47;4.75;;;2.78;;
73266;SDS011;61495;53.400;7.608;2023-04-24T07:20:12;4.95;;;2.30;;
73266;SDS011;61495;53.400;7.608;2023-04-24T07:22:39;4.50;;;2.20;;
73266;SDS011;61495;53.400;7.608;2023-04-24T07:25:04;4.63;;;2.78;;
73266;SDS011;61495;53.400;7.608;2023-04-24T07:27:30;4.18;;;2.55;;
73266;SDS011;61495;53.400;7.608;2023-04-24T07:29:55;3.97;;;2.50;;
73266;SDS011;61495;53.400;7.608;2023-04-24T07:32:21;4.47;;;2.50;;
73266;SDS011;61495;53.400;7.608;2023-04-24T07:34:46;3.58;;;1.80;;
73266;SDS011;61495;53.400;7.608;2023-04-24T07:37:11;3.92;;;1.67;;
73266;SDS011;61495;53.400;7.608;2023-04-24T07:39:37;4.50;;;2.10;;
73266;SDS011;61495;53.400;7.608;2023-04-24T07:42:02;3.30;;;1.83;;
73266;SDS011;61495;53.400;7.608;2023-04-24T07:44:28;4.05;;;2.22;;
73266;SDS011;61495;53.400;7.608;2023-04-24T07:46:54;3.50;;;1.90;;
73266;SDS011;61495;53.400;7.608;2023-04-24T07:49:24;3.95;;;1.88;;
73266;SDS011;61495;53.400;7.608;2023-04-24T07:51:50;3.30;;;1.67;;
73266;SDS011;61495;53.400;7.608;2023-04-24T07:54:15;3.50;;;1.58;;
73266;SDS011;61495;53.400;7.608;2023-04-24T07:56:41;4.65;;;2.40;;
73266;SDS011;61495;53.400;7.608;2023-04-24T07:59:08;3.38;;;1.70;;
73266;SDS011;61495;53.400;7.608;2023-04-24T08:01:35;3.47;;;1.90;;
73266;SDS011;61495;53.400;7.608;2023-04-24T08:04:00;3.20;;;1.52;;
73266;SDS011;61495;53.400;7.608;2023-04-24T08:06:26;3.28;;;1.63;;
73266;SDS011;61495;53.400;7.608;2023-04-24T08:08:55;3.53;;;1.65;;
73266;SDS011;61495;53.400;7.608;2023-04-24T08:11:24;3.78;;;1.98;;
73266;SDS011;61495;53.400;7.608;2023-04-24T08:13:50;4.10;;;1.60;;
73266;SDS011;61495;53.400;7.608;2023-04-24T08:16:16;3.00;;;1.52;;
73266;SDS011;61495;53.400;7.608;2023-04-24T08:18:41;2.90;;;1.38;;
73266;SDS011;61495;53.400;7.608;2023-04-24T08:21:06;3.55;;;1.50;;
73266;SDS011;61495;53.400;7.608;2023-04-24T08:23:32;5.03;;;2.17;;
73266;SDS011;61495;53.400;7.608;2023-04-24T08:25:57;3.25;;;1.38;;
73266;SDS011;61495;53.400;7.608;2023-04-24T08:28:23;4.60;;;1.65;;
73266;SDS011;61495;53.400;7.608;2023-04-24T08:30:48;3.10;;;1.42;;
73266;SDS011;61495;53.400;7.608;2023-04-24T08:33:19;3.15;;;1.33;;
73266;SDS011;61495;53.400;7.608;2023-04-24T08:35:45;3.22;;;1.52;;
73266;SDS011;61495;53.400;7.608;2023-04-24T08:38:10;3.63;;;1.50;;
73266;SDS011;61495;53.400;7.608;2023-04-24T08:40:36;3.20;;;1.73;;
73266;SDS011;61495;53.400;7.608;2023-04-24T08:43:02;2.17;;;0.90;;
73266;SDS011;61495;53.400;7.608;2023-04-24T08:45:28;1.60;;;1.05;;
73266;SDS011;61495;53.400;7.608;2023-04-24T08:47:59;1.88;;;1.10;;
73266;SDS011;61495;53.400;7.608;2023-04-24T08:50:25;1.85;;;0.80;;
73266;SDS011;61495;53.400;7.608;2023-04-24T08:52:51;1.70;;;1.02;;
73266;SDS011;61495;53.400;7.608;2023-04-24T08:55:18;1.67;;;0.65;;
73266;SDS011;61495;53.400;7.608;2023-04-24T08:57:45;1.98;;;0.95;;
73266;SDS011;61495;53.400;7.608;2023-04-24T09:00:15;1.70;;;0.98;;
73266;SDS011;61495;53.400;7.608;2023-04-24T09:02:41;1.60;;;1.00;;
73266;SDS011;61495;53.400;7.608;2023-04-24T09:05:08;2.78;;;0.70;;
73266;SDS011;61495;53.400;7.608;2023-04-24T09:07:35;2.03;;;1.10;;
73266;SDS011;61495;53.400;7.608;2023-04-24T09:10:03;1.85;;;1.00;;
73266;SDS011;61495;53.400;7.608;2023-04-24T09:12:29;1.67;;;0.80;;
73266;SDS011;61495;53.400;7.608;2023-04-24T09:14:54;2.40;;;1.15;;
73266;SDS011;61495;53.400;7.608;2023-04-24T09:17:21;2.10;;;1.10;;
73266;SDS011;61495;53.400;7.608;2023-04-24T09:19:51;3.03;;;1.20;;
73266;SDS011;61495;53.400;7.608;2023-04-24T09:22:16;3.53;;;1.92;;
73266;SDS011;61495;53.400;7.608;2023-04-24T09:24:43;4.63;;;2.10;;
73266;SDS011;61495;53.400;7.608;2023-04-24T09:27:10;4.00;;;1.92;;
73266;SDS011;61495;53.400;7.608;2023-04-24T09:29:37;4.18;;;2.33;;
73266;SDS011;61495;53.400;7.608;2023-04-24T09:32:18;4.40;;;2.25;;
73266;SDS011;61495;53.400;7.608;2023-04-24T09:34:47;5.18;;;1.80;;
73266;SDS011;61495;53.400;7.608;2023-04-24T09:37:18;5.40;;;2.65;;
73266;SDS011;61495;53.400;7.608;2023-04-24T09:40:08;4.55;;;1.80;;
73266;SDS011;61495;53.400;7.608;2023-04-24T09:42:37;4.25;;;1.63;;
73266;SDS011;61495;53.400;7.608;2023-04-24T09:45:03;3.70;;;1.40;;
73266;SDS011;61495;53.400;7.608;2023-04-24T09:47:38;3.55;;;1.60;;
73266;SDS011;61495;53.400;7.608;2023-04-24T09:50:11;3.80;;;1.40;;
73266;SDS011;61495;53.400;7.608;2023-04-24T09:52:44;2.17;;;0.70;;
73266;SDS011;61495;53.400;7.608;2023-04-24T09:55:15;3.13;;;1.00;;
73266;SDS011;61495;53.400;7.608;2023-04-24T10:00:23;2.80;;;1.08;;
73266;SDS011;61495;53.400;7.608;2023-04-24T10:02:54;3.47;;;1.10;;
73266;SDS011;61495;53.400;7.608;2023-04-24T10:05:23;5.22;;;1.27;;
73266;SDS011;61495;53.400;7.608;2023-04-24T10:07:49;3.88;;;1.23;;
73266;SDS011;61495;53.400;7.608;2023-04-24T10:10:15;3.05;;;1.00;;
73266;SDS011;61495;53.400;7.608;2023-04-24T10:12:41;4.30;;;1.45;;
73266;SDS011;61495;53.400;7.608;2023-04-24T10:15:07;3.53;;;1.58;;
73266;SDS011;61495;53.400;7.608;2023-04-24T10:17:37;3.60;;;1.35;;
73266;SDS011;61495;53.400;7.608;2023-04-24T10:20:03;4.72;;;2.08;;
73266;SDS011;61495;53.400;7.608;2023-04-24T10:22:31;4.53;;;1.50;;
73266;SDS011;61495;53.400;7.608;2023-04-24T10:24:57;4.72;;;1.63;;
73266;SDS011;61495;53.400;7.608;2023-04-24T10:27:24;5.50;;;1.90;;
73266;SDS011;61495;53.400;7.608;2023-04-24T10:29:52;7.57;;;2.33;;
73266;SDS011;61495;53.400;7.608;2023-04-24T10:32:18;7.50;;;4.05;;
73266;SDS011;61495;53.400;7.608;2023-04-24T10:34:44;7.75;;;3.17;;
73266;SDS011;61495;53.400;7.608;2023-04-24T10:37:09;6.80;;;3.63;;
73266;SDS011;61495;53.400;7.608;2023-04-24T10:39:35;7.68;;;3.35;;
73266;SDS011;61495;53.400;7.608;2023-04-24T10:42:02;6.57;;;3.50;;
73266;SDS011;61495;53.400;7.608;2023-04-24T10:44:40;9.65;;;4.35;;
73266;SDS011;61495;53.400;7.608;2023-04-24T10:47:05;8.02;;;4.10;;
73266;SDS011;61495;53.400;7.608;2023-04-24T10:49:41;8.88;;;4.28;;
73266;SDS011;61495;53.400;7.608;2023-04-24T10:52:08;9.88;;;4.85;;
73266;SDS011;61495;53.400;7.608;2023-04-24T10:59:50;11.65;;;6.57;;
73266;SDS011;61495;53.400;7.608;2023-04-24T11:02:37;14.18;;;6.90;;
73266;SDS011;61495;53.400;7.608;2023-04-24T11:05:05;13.88;;;7.38;;
73266;SDS011;61495;53.400;7.608;2023-04-24T11:08:09;12.50;;;7.43;;
73266;SDS011;61495;53.400;7.608;2023-04-24T11:10:46;16.35;;;7.35;;
73266;SDS011;61495;53.400;7.608;2023-04-24T11:13:16;14.73;;;7.25;;
73266;SDS011;61495;53.400;7.608;2023-04-24T11:15:42;12.75;;;6.47;;
73266;SDS011;61495;53.400;7.608;2023-04-24T11:18:12;14.45;;;6.80;;
73266;SDS011;61495;53.400;7.608;2023-04-24T11:20:44;12.10;;;6.88;;
73266;SDS011;61495;53.400;7.608;2023-04-24T11:23:11;12.00;;;6.30;;
73266;SDS011;61495;53.400;7.608;2023-04-24T11:25:37;13.23;;;6.15;;
73266;SDS011;61495;53.400;7.608;2023-04-24T11:28:03;11.93;;;6.57;;
73266;SDS011;61495;53.400;7.608;2023-04-24T11:30:31;9.25;;;6.70;;
73266;SDS011;61495;53.400;7.608;2023-04-24T11:33:04;15.05;;;6.65;;
73266;SDS011;61495;53.400;7.608;2023-04-24T11:35:30;10.75;;;6.57;;
73266;SDS011;61495;53.400;7.608;2023-04-24T11:38:02;9.48;;;5.85;;
73266;SDS011;61495;53.400;7.608;2023-04-24T11:40:28;10.00;;;5.47;;
73266;SDS011;61495;53.400;7.608;2023-04-24T11:42:55;13.65;;;5.07;;
73266;SDS011;61495;53.400;7.608;2023-04-24T11:45:22;10.77;;;5.70;;
73266;SDS011;61495;53.400;7.608;2023-04-24T11:47:55;9.23;;;4.75;;
73266;SDS011;61495;53.400;7.608;2023-04-24T11:50:24;9.40;;;4.65;;
73266;SDS011;61495;53.400;7.608;2023-04-24T11:52:52;10.57;;;5.25;;
73266;SDS011;61495;53.400;7.608;2023-04-24T11:57:47;8.88;;;3.90;;
73266;SDS011;61495;53.400;7.608;2023-04-24T12:00:27;7.85;;;4.75;;
73266;SDS011;61495;53.400;7.608;2023-04-24T12:03:04;8.93;;;4.75;;
73266;SDS011;61495;53.400;7.608;2023-04-24T12:05:31;11.88;;;4.55;;
73266;SDS011;61495;53.400;7.608;2023-04-24T12:07:56;11.93;;;3.75;;
73266;SDS011;61495;53.400;7.608;2023-04-24T12:10:22;12.50;;;3.97;;
73266;SDS011;61495;53.400;7.608;2023-04-24T12:12:49;7.30;;;3.67;;
73266;SDS011;61495;53.400;7.608;2023-04-24T12:15:16;13.68;;;4.00;;
73266;SDS011;61495;53.400;7.608;2023-04-24T12:17:43;7.15;;;3.70;;
73266;SDS011;61495;53.400;7.608;2023-04-24T12:20:08;7.38;;;3.60;;
73266;SDS011;61495;53.400;7.608;2023-04-24T12:25:15;8.98;;;3.78;;
73266;SDS011;61495;53.400;7.608;2023-04-24T12:27:41;8.90;;;3.00;;
73266;SDS011;61495;53.400;7.608;2023-04-24T12:30:09;6.13;;;2.97;;
73266;SDS011;61495;53.400;7.608;2023-04-24T12:32:41;8.00;;;2.70;;
73266;SDS011;61495;53.400;7.608;2023-04-24T12:35:10;6.43;;;3.38;;
73266;SDS011;61495;53.400;7.608;2023-04-24T12:37:36;8.27;;;3.60;;
73266;SDS011;61495;53.400;7.608;2023-04-24T12:40:05;10.40;;;3.58;;
73266;SDS011;61495;53.400;7.608;2023-04-24T12:42:33;8.57;;;2.90;;
73266;SDS011;61495;53.400;7.608;2023-04-24T12:45:03;8.02;;;2.92;;
73266;SDS011;61495;53.400;7.608;2023-04-24T12:47:30;6.97;;;3.33;;
73266;SDS011;61495;53.400;7.608;2023-04-24T12:50:13;10.90;;;4.35;;
73266;SDS011;61495;53.400;7.608;2023-04-24T12:52:40;10.55;;;3.90;;
73266;SDS011;61495;53.400;7.608;2023-04-24T12:55:06;9.15;;;3.75;;
73266;SDS011;61495;53.400;7.608;2023-04-24T12:57:33;8.75;;;3.35;;
73266;SDS011;61495;53.400;7.608;2023-04-24T12:59:59;10.43;;;3.50;;
73266;SDS011;61495;53.400;7.608;2023-04-24T13:02:26;8.43;;;3.00;;
73266;SDS011;61495;53.400;7.608;2023-04-24T13:04:57;6.25;;;2.72;;
73266;SDS011;61495;53.400;7.608;2023-04-24T13:07:23;5.40;;;2.53;;
73266;SDS011;61495;53.400;7.608;2023-04-24T13:09:49;8.30;;;3.20;;
73266;SDS011;61495;53.400;7.608;2023-04-24T13:12:15;10.93;;;3.38;;
73266;SDS011;61495;53.400;7.608;2023-04-24T13:14:40;7.25;;;2.15;;
73266;SDS011;61495;53.400;7.608;2023-04-24T13:17:06;6.03;;;2.75;;
73266;SDS011;61495;53.400;7.608;2023-04-24T13:19:43;7.45;;;2.78;;
73266;SDS011;61495;53.400;7.608;2023-04-24T13:22:09;6.22;;;2.10;;
73266;SDS011;61495;53.400;7.608;2023-04-24T13:24:36;8.80;;;2.30;;
73266;SDS011;61495;53.400;7.608;2023-04-24T13:27:02;7.03;;;2.72;;
73266;SDS011;61495;53.400;7.608;2023-04-24T13:29:28;7.82;;;1.98;;
73266;SDS011;61495;53.400;7.608;2023-04-24T13:31:54;7.20;;;2.33;;
73266;SDS011;61495;53.400;7.608;2023-04-24T13:34:20;7.15;;;1.90;;
73266;SDS011;61495;53.400;7.608;2023-04-24T13:36:46;8.60;;;2.25;;
73266;SDS011;61495;53.400;7.608;2023-04-24T13:39:12;5.25;;;1.77;;
73266;SDS011;61495;53.400;7.608;2023-04-24T13:41:37;4.45;;;1.90;;
73266;SDS011;61495;53.400;7.608;2023-04-24T13:44:03;5.40;;;1.80;;
73266;SDS011;61495;53.400;7.608;2023-04-24T13:46:29;5.53;;;1.40;;
73266;SDS011;61495;53.400;7.608;2023-04-24T13:48:58;5.53;;;1.75;;
73266;SDS011;61495;53.400;7.608;2023-04-24T13:51:25;5.70;;;1.52;;
73266;SDS011;61495;53.400;7.608;2023-04-24T13:53:54;5.75;;;1.63;;
73266;SDS011;61495;53.400;7.608;2023-04-24T13:56:20;5.45;;;1.55;;
73266;SDS011;61495;53.400;7.608;2023-04-24T13:58:45;6.60;;;1.90;;
73266;SDS011;61495;53.400;7.608;2023-04-24T14:01:11;6.20;;;2.08;;
73266;SDS011;61495;53.400;7.608;2023-04-24T14:03:37;3.53;;;1.23;;
73266;SDS011;61495;53.400;7.608;2023-04-24T14:06:03;5.35;;;1.20;;
73266;SDS011;61495;53.400;7.608;2023-04-24T14:08:28;4.40;;;0.90;;
73266;SDS011;61495;53.400;7.608;2023-04-24T14:10:54;4.30;;;1.20;;
73266;SDS011;61495;53.400;7.608;2023-04-24T14:13:19;3.75;;;1.45;;
73266;SDS011;61495;53.400;7.608;2023-04-24T14:15:45;3.85;;;1.42;;
73266;SDS011;61495;53.400;7.608;2023-04-24T14:18:11;3.10;;;1.20;;
73266;SDS011;61495;53.400;7.608;2023-04-24T14:20:36;3.97;;;1.75;;
73266;SDS011;61495;53.400;7.608;2023-04-24T14:23:02;6.13;;;1.30;;
73266;SDS011;61495;53.400;7.608;2023-04-24T14:25:28;4.20;;;1.33;;
73266;SDS011;61495;53.400;7.608;2023-04-24T14:27:53;4.75;;;1.02;;
73266;SDS011;61495;53.400;7.608;2023-04-24T14:30:19;4.88;;;1.27;;
73266;SDS011;61495;53.400;7.608;2023-04-24T14:32:44;4.18;;;1.05;;
73266;SDS011;61495;53.400;7.608;2023-04-24T14:35:09;5.28;;;1.35;;
73266;SDS011;61495;53.400;7.608;2023-04-24T14:37:35;4.15;;;1.58;;
73266;SDS011;61495;53.400;7.608;2023-04-24T14:40:01;5.10;;;1.08;;
73266;SDS011;61495;53.400;7.608;2023-04-24T14:42:28;5.28;;;1.42;;
73266;SDS011;61495;53.400;7.608;2023-04-24T14:44:53;4.35;;;1.40;;
73266;SDS011;61495;53.400;7.608;2023-04-24T14:47:19;3.58;;;1.58;;
73266;SDS011;61495;53.400;7.608;2023-04-24T14:49:49;5.22;;;1.33;;
73266;SDS011;61495;53.400;7.608;2023-04-24T14:52:15;4.18;;;1.10;;
73266;SDS011;61495;53.400;7.608;2023-04-24T14:54:41;5.00;;;1.50;;
73266;SDS011;61495;53.400;7.608;2023-04-24T14:57:07;4.63;;;1.33;;
73266;SDS011;61495;53.400;7.608;2023-04-24T14:59:33;4.47;;;1.00;;